createdAt,value
2019-02-23T00:00:57.958Z,1016.53
2019-02-23T00:02:00.712Z,1016.56
2019-02-23T00:02:59.920Z,1016.58
2019-02-23T00:03:58.786Z,1016.64
2019-02-23T00:04:58.993Z,1016.68
2019-02-23T00:05:59.169Z,1016.66
2019-02-23T00:07:01.358Z,1016.61
2019-02-23T00:07:59.363Z,1016.51
2019-02-23T00:09:01.441Z,1016.45
2019-02-23T00:10:00.791Z,1016.47
2019-02-23T00:11:01.985Z,1016.47
2019-02-23T00:12:00.029Z,1016.47
2019-02-23T00:13:00.104Z,1016.48
2019-02-23T00:14:01.396Z,1016.52
2019-02-23T00:15:00.296Z,1016.53
2019-02-23T00:16:00.437Z,1016.52
2019-02-23T00:17:00.572Z,1016.55
2019-02-23T00:18:00.766Z,1016.51
2019-02-23T00:19:00.943Z,1016.53
2019-02-23T00:20:01.088Z,1016.54
2019-02-23T00:21:01.224Z,1016.55
2019-02-23T00:22:01.373Z,1016.57
2019-02-23T00:23:01.565Z,1016.59
2019-02-23T00:24:01.720Z,1016.56
2019-02-23T00:25:01.892Z,1016.62
2019-02-23T00:26:02.027Z,1016.62
2019-02-23T00:27:02.182Z,1016.63
2019-02-23T00:28:02.331Z,1016.64
2019-02-23T00:29:02.485Z,1016.68
2019-02-23T00:30:02.667Z,1016.69
2019-02-23T00:31:02.822Z,1016.68
2019-02-23T00:32:02.972Z,1016.68
2019-02-23T00:33:03.137Z,1016.65
2019-02-23T00:34:03.298Z,1016.68
2019-02-23T00:35:03.495Z,1016.68
2019-02-23T00:36:03.650Z,1016.67
2019-02-23T00:37:07.337Z,1016.69
2019-02-23T00:38:07.661Z,1016.70
2019-02-23T00:39:05.562Z,1016.63
2019-02-23T00:40:06.119Z,1016.65
2019-02-23T00:41:04.516Z,1016.64
2019-02-23T00:42:04.801Z,1016.59
2019-02-23T00:43:07.220Z,1016.55
2019-02-23T00:44:05.201Z,1016.56
2019-02-23T00:45:05.214Z,1016.54
2019-02-23T00:46:08.600Z,1016.52
2019-02-23T00:47:05.466Z,1016.55
2019-02-23T00:48:05.618Z,1016.52
2019-02-23T00:49:05.789Z,1016.54
2019-02-23T00:50:05.719Z,1016.56
2019-02-23T00:51:05.892Z,1016.58
2019-02-23T00:52:06.051Z,1016.60
2019-02-23T00:53:06.158Z,1016.64
2019-02-23T00:54:06.339Z,1016.63
2019-02-23T00:55:06.483Z,1016.66
2019-02-23T00:56:06.638Z,1016.67
2019-02-23T00:57:06.806Z,1016.69
2019-02-23T00:58:06.964Z,1016.66
2019-02-23T00:59:07.126Z,1016.65
2019-02-23T01:00:07.306Z,1016.64
2019-02-23T01:01:07.510Z,1016.65
2019-02-23T01:02:07.731Z,1016.63
2019-02-23T01:03:07.932Z,1016.65
2019-02-23T01:04:08.107Z,1016.63
2019-02-23T01:05:08.253Z,1016.69
2019-02-23T01:06:08.390Z,1016.68
2019-02-23T01:07:08.553Z,1016.73
2019-02-23T01:08:08.740Z,1016.72
2019-02-23T01:09:08.878Z,1016.72
2019-02-23T01:10:09.025Z,1016.70
2019-02-23T01:11:09.168Z,1016.68
2019-02-23T01:12:09.349Z,1016.67
2019-02-23T01:13:09.507Z,1016.67
2019-02-23T01:14:09.652Z,1016.66
2019-02-23T01:15:09.797Z,1016.67
2019-02-23T01:16:09.962Z,1016.72
2019-02-23T01:17:10.115Z,1016.72
2019-02-23T01:18:10.260Z,1016.77
2019-02-23T01:19:10.444Z,1016.74
2019-02-23T01:20:10.612Z,1016.75
2019-02-23T01:21:10.810Z,1016.73
2019-02-23T01:22:10.948Z,1016.68
2019-02-23T01:23:11.112Z,1016.70
2019-02-23T01:24:11.257Z,1016.66
2019-02-23T01:25:11.416Z,1016.71
2019-02-23T01:26:11.576Z,1016.67
2019-02-23T01:27:11.757Z,1016.70
2019-02-23T01:28:11.896Z,1016.73
2019-02-23T01:29:12.037Z,1016.69
2019-02-23T01:30:12.183Z,1016.68
2019-02-23T01:31:12.342Z,1016.64
2019-02-23T01:32:12.509Z,1016.59
2019-02-23T01:33:12.652Z,1016.55
2019-02-23T01:34:12.833Z,1016.52
2019-02-23T01:35:12.978Z,1016.49
2019-02-23T01:36:13.172Z,1016.43
2019-02-23T01:37:13.328Z,1016.41
2019-02-23T01:38:13.480Z,1016.38
2019-02-23T01:39:13.639Z,1016.39
2019-02-23T01:40:13.738Z,1016.40
2019-02-23T01:41:13.906Z,1016.36
2019-02-23T01:42:14.133Z,1016.35
2019-02-23T01:43:14.303Z,1016.37
2019-02-23T01:44:14.464Z,1016.38
2019-02-23T01:45:14.615Z,1016.47
2019-02-23T01:46:14.810Z,1016.48
2019-02-23T01:47:14.956Z,1016.51
2019-02-23T01:48:15.103Z,1016.51
2019-02-23T01:49:15.243Z,1016.51
2019-02-23T01:50:15.390Z,1016.51
2019-02-23T01:51:15.522Z,1016.55
2019-02-23T01:52:15.672Z,1016.57
2019-02-23T01:53:15.813Z,1016.61
2019-02-23T01:54:15.956Z,1016.53
2019-02-23T01:55:16.103Z,1016.55
2019-02-23T01:56:16.262Z,1016.56
2019-02-23T01:57:16.397Z,1016.55
2019-02-23T01:58:16.568Z,1016.59
2019-02-23T01:59:16.722Z,1016.60
2019-02-23T02:00:16.870Z,1016.59
2019-02-23T02:01:17.041Z,1016.62
2019-02-23T02:02:17.198Z,1016.60
2019-02-23T02:03:17.366Z,1016.66
2019-02-23T02:04:17.522Z,1016.64
2019-02-23T02:05:17.688Z,1016.60
2019-02-23T02:06:17.851Z,1016.59
2019-02-23T02:07:18.009Z,1016.51
2019-02-23T02:08:18.803Z,1016.59
2019-02-23T02:09:23.533Z,1016.61
2019-02-23T02:10:22.605Z,1016.56
2019-02-23T02:11:22.402Z,1016.62
2019-02-23T02:12:21.691Z,1016.60
2019-02-23T02:13:19.038Z,1016.65
2019-02-23T02:14:19.205Z,1016.64
2019-02-23T02:15:19.352Z,1016.66
2019-02-23T02:16:19.492Z,1016.63
2019-02-23T02:17:19.668Z,1016.56
2019-02-23T02:18:19.757Z,1016.59
2019-02-23T02:19:19.999Z,1016.53
2019-02-23T02:20:20.140Z,1016.52
2019-02-23T02:21:20.305Z,1016.50
2019-02-23T02:22:20.446Z,1016.54
2019-02-23T02:23:20.619Z,1016.53
2019-02-23T02:24:20.814Z,1016.52
2019-02-23T02:25:20.975Z,1016.55
2019-02-23T02:26:21.145Z,1016.58
2019-02-23T02:27:21.326Z,1016.60
2019-02-23T02:28:21.473Z,1016.59
2019-02-23T02:29:21.632Z,1016.54
2019-02-23T02:30:21.789Z,1016.49
2019-02-23T02:34:13.473Z,1016.38
2019-02-23T02:35:38.823Z,1016.32
2019-02-23T02:36:13.667Z,1016.24
2019-02-23T02:37:41.459Z,1016.24
2019-02-23T02:38:13.949Z,1016.17
2019-02-23T02:39:14.681Z,1016.08
2019-02-23T02:40:14.209Z,1016.02
2019-02-23T02:41:14.325Z,1015.97
2019-02-23T02:42:14.401Z,1015.99
2019-02-23T02:43:14.612Z,1015.95
2019-02-23T02:44:14.843Z,1015.95
2019-02-23T02:45:14.919Z,1016.02
2019-02-23T02:46:16.705Z,1015.98
2019-02-23T02:47:15.275Z,1015.98
2019-02-23T02:48:15.486Z,1015.96
2019-02-23T02:49:15.694Z,1015.96
2019-02-23T02:50:24.344Z,1016.00
2019-02-23T02:51:16.119Z,1016.00
2019-02-23T02:52:16.284Z,1016.06
2019-02-23T02:53:16.471Z,1016.15
2019-02-23T02:54:16.617Z,1016.20
2019-02-23T02:55:16.757Z,1016.21
2019-02-23T02:56:16.950Z,1016.13
2019-02-23T02:57:16.999Z,1016.08
2019-02-23T02:58:17.098Z,1015.95
2019-02-23T02:59:17.322Z,1015.89
2019-02-23T03:00:17.505Z,1015.85
2019-02-23T03:01:17.684Z,1015.87
2019-02-23T03:02:17.955Z,1015.94
2019-02-23T03:03:17.987Z,1015.94
2019-02-23T03:04:18.161Z,1015.99
2019-02-23T03:05:18.336Z,1015.95
2019-02-23T03:06:18.474Z,1015.97
2019-02-23T03:07:18.626Z,1016.00
2019-02-23T03:08:18.774Z,1015.92
2019-02-23T03:09:18.931Z,1015.95
2019-02-23T03:10:19.077Z,1015.98
2019-02-23T03:11:19.237Z,1015.95
2019-02-23T03:12:19.440Z,1015.89
2019-02-23T03:13:19.581Z,1015.87
2019-02-23T03:14:19.753Z,1015.83
2019-02-23T03:15:19.936Z,1015.80
2019-02-23T03:16:20.085Z,1015.75
2019-02-23T03:17:20.256Z,1015.77
2019-02-23T03:18:20.409Z,1015.78
2019-02-23T03:19:20.579Z,1015.80
2019-02-23T03:20:20.772Z,1015.84
2019-02-23T03:21:20.912Z,1015.84
2019-02-23T03:22:21.020Z,1015.83
2019-02-23T03:23:21.166Z,1015.84
2019-02-23T03:24:21.344Z,1015.85
2019-02-23T03:25:21.540Z,1015.81
2019-02-23T03:26:21.688Z,1015.79
2019-02-23T03:27:21.873Z,1015.76
2019-02-23T03:28:22.023Z,1015.74
2019-02-23T03:29:22.202Z,1015.76
2019-02-23T03:30:22.388Z,1015.75
2019-02-23T03:31:22.526Z,1015.78
2019-02-23T03:32:22.697Z,1015.75
2019-02-23T03:33:22.862Z,1015.76
2019-02-23T03:34:23.015Z,1015.76
2019-02-23T03:35:23.209Z,1015.73
2019-02-23T03:36:23.284Z,1015.74
2019-02-23T03:37:23.471Z,1015.75
2019-02-23T03:38:23.659Z,1015.71
2019-02-23T03:39:23.807Z,1015.68
2019-02-23T03:40:23.979Z,1015.62
2019-02-23T03:41:24.140Z,1015.60
2019-02-23T03:42:24.322Z,1015.56
2019-02-23T03:43:24.470Z,1015.53
2019-02-23T03:44:24.627Z,1015.54
2019-02-23T03:45:24.860Z,1015.54
2019-02-23T03:46:24.992Z,1015.50
2019-02-23T03:47:25.208Z,1015.53
2019-02-23T03:48:25.379Z,1015.57
2019-02-23T03:49:25.523Z,1015.50
2019-02-23T03:50:25.703Z,1015.50
2019-02-23T03:51:25.863Z,1015.51
2019-02-23T03:52:26.046Z,1015.48
2019-02-23T03:53:26.175Z,1015.50
2019-02-23T03:54:26.388Z,1015.55
2019-02-23T03:55:26.567Z,1015.62
2019-02-23T03:56:26.769Z,1015.64
2019-02-23T03:57:26.970Z,1015.60
2019-02-23T03:58:27.125Z,1015.61
2019-02-23T03:59:27.293Z,1015.63
2019-02-23T04:00:27.460Z,1015.69
2019-02-23T04:01:27.609Z,1015.65
2019-02-23T04:02:27.779Z,1015.66
2019-02-23T04:03:28.012Z,1015.60
2019-02-23T04:04:28.062Z,1015.63
2019-02-23T04:05:28.236Z,1015.64
2019-02-23T04:06:28.381Z,1015.61
2019-02-23T04:07:28.583Z,1015.62
2019-02-23T04:08:28.748Z,1015.60
2019-02-23T04:09:28.822Z,1015.56
2019-02-23T04:10:29.025Z,1015.54
2019-02-23T04:11:29.248Z,1015.48
2019-02-23T04:12:29.360Z,1015.48
2019-02-23T04:13:29.574Z,1015.42
2019-02-23T04:14:30.665Z,1015.46
2019-02-23T04:15:33.002Z,1015.47
2019-02-23T04:16:31.239Z,1015.45
2019-02-23T04:17:30.928Z,1015.46
2019-02-23T04:18:30.706Z,1015.52
2019-02-23T04:19:30.540Z,1015.50
2019-02-23T04:20:30.733Z,1015.50
2019-02-23T04:21:30.887Z,1015.48
2019-02-23T04:22:31.033Z,1015.50
2019-02-23T04:23:31.233Z,1015.52
2019-02-23T04:24:31.395Z,1015.45
2019-02-23T04:25:31.557Z,1015.43
2019-02-23T04:26:31.729Z,1015.45
2019-02-23T04:27:31.800Z,1015.44
2019-02-23T04:28:32.009Z,1015.46
2019-02-23T04:29:32.146Z,1015.43
2019-02-23T04:30:32.327Z,1015.45
2019-02-23T04:31:32.488Z,1015.47
2019-02-23T04:32:32.629Z,1015.50
2019-02-23T04:33:32.766Z,1015.52
2019-02-23T04:34:32.957Z,1015.54
2019-02-23T04:35:33.153Z,1015.58
2019-02-23T04:36:36.291Z,1015.57
2019-02-23T04:37:37.532Z,1015.59
2019-02-23T04:38:38.126Z,1015.58
2019-02-23T04:39:39.721Z,1015.63
2019-02-23T04:40:36.535Z,1015.64
2019-02-23T04:41:36.129Z,1015.62
2019-02-23T04:42:34.348Z,1015.58
2019-02-23T04:43:34.514Z,1015.60
2019-02-23T04:44:34.664Z,1015.62
2019-02-23T04:45:34.857Z,1015.62
2019-02-23T04:46:35.019Z,1015.65
2019-02-23T04:50:50.767Z,1015.61
2019-02-23T04:52:29.309Z,1015.66
2019-02-23T04:52:50.905Z,1015.67
2019-02-23T04:54:14.959Z,1015.73
2019-02-23T04:54:51.778Z,1015.76
2019-02-23T04:55:51.381Z,1015.77
2019-02-23T04:56:52.252Z,1015.75
2019-02-23T04:57:51.584Z,1015.78
2019-02-23T04:58:51.792Z,1015.79
2019-02-23T04:59:52.699Z,1015.81
2019-02-23T05:00:52.204Z,1015.80
2019-02-23T05:01:52.290Z,1015.79
2019-02-23T05:02:52.498Z,1015.80
2019-02-23T05:03:52.725Z,1015.84
2019-02-23T05:04:53.030Z,1015.84
2019-02-23T05:05:53.075Z,1015.83
2019-02-23T05:06:53.233Z,1015.83
2019-02-23T05:07:53.305Z,1015.84
2019-02-23T05:08:53.501Z,1015.83
2019-02-23T05:09:53.721Z,1015.86
2019-02-23T05:10:54.716Z,1015.93
2019-02-23T05:11:54.777Z,1015.95
2019-02-23T05:12:54.134Z,1016.00
2019-02-23T05:13:54.218Z,1015.98
2019-02-23T05:14:54.350Z,1015.94
2019-02-23T05:15:54.540Z,1016.00
2019-02-23T05:16:54.741Z,1015.99
2019-02-23T05:17:55.762Z,1016.01
2019-02-23T05:18:55.822Z,1016.02
2019-02-23T05:19:55.287Z,1016.02
2019-02-23T05:20:55.509Z,1015.98
2019-02-23T05:21:55.606Z,1015.95
2019-02-23T05:22:55.803Z,1015.98
2019-02-23T05:23:55.932Z,1015.93
2019-02-23T05:24:56.737Z,1015.94
2019-02-23T05:25:56.331Z,1015.90
2019-02-23T05:26:56.532Z,1015.90
2019-02-23T05:27:56.740Z,1015.89
2019-02-23T05:28:56.979Z,1015.82
2019-02-23T05:29:57.071Z,1015.82
2019-02-23T05:30:57.288Z,1015.79
2019-02-23T05:31:57.517Z,1015.80
2019-02-23T05:32:57.612Z,1015.79
2019-02-23T05:33:57.696Z,1015.81
2019-02-23T05:34:57.913Z,1015.79
2019-02-23T05:35:58.000Z,1015.79
2019-02-23T05:36:58.232Z,1015.80
2019-02-23T05:37:58.301Z,1015.75
2019-02-23T05:38:58.518Z,1015.76
2019-02-23T05:39:58.612Z,1015.78
2019-02-23T05:40:58.693Z,1015.77
2019-02-23T05:41:59.755Z,1015.76
2019-02-23T05:43:01.275Z,1015.80
2019-02-23T05:43:59.313Z,1015.79
2019-02-23T05:44:59.422Z,1015.76
2019-02-23T05:45:59.503Z,1015.78
2019-02-23T05:47:00.249Z,1015.84
2019-02-23T05:47:59.870Z,1015.87
2019-02-23T05:49:00.013Z,1015.90
2019-02-23T05:50:00.150Z,1015.93
2019-02-23T05:51:00.296Z,1015.95
2019-02-23T05:52:00.537Z,1015.96
2019-02-23T05:53:00.616Z,1015.98
2019-02-23T05:54:00.865Z,1015.99
2019-02-23T05:55:01.081Z,1016.01
2019-02-23T05:56:01.173Z,1016.11
2019-02-23T05:57:01.247Z,1016.15
2019-02-23T05:58:01.465Z,1016.15
2019-02-23T05:59:01.714Z,1016.16
2019-02-23T06:00:01.801Z,1016.18
2019-02-23T06:01:01.990Z,1016.17
2019-02-23T06:02:02.282Z,1016.20
2019-02-23T06:03:02.373Z,1016.19
2019-02-23T06:04:05.419Z,1016.23
2019-02-23T06:05:04.654Z,1016.24
2019-02-23T06:06:04.686Z,1016.28
2019-02-23T06:07:04.036Z,1016.32
2019-02-23T06:08:05.265Z,1016.34
2019-02-23T06:09:03.341Z,1016.33
2019-02-23T06:10:03.430Z,1016.35
2019-02-23T06:11:03.599Z,1016.35
2019-02-23T06:12:03.720Z,1016.38
2019-02-23T06:13:03.869Z,1016.39
2019-02-23T06:14:04.030Z,1016.39
2019-02-23T06:15:04.216Z,1016.47
2019-02-23T06:16:04.251Z,1016.50
2019-02-23T06:17:04.441Z,1016.54
2019-02-23T06:18:05.287Z,1016.56
2019-02-23T06:19:04.749Z,1016.59
2019-02-23T06:20:05.774Z,1016.57
2019-02-23T06:21:06.927Z,1016.59
2019-02-23T06:22:09.401Z,1016.56
2019-02-23T06:23:06.306Z,1016.60
2019-02-23T06:24:05.613Z,1016.61
2019-02-23T06:25:05.659Z,1016.64
2019-02-23T06:26:05.834Z,1016.67
2019-02-23T06:27:05.932Z,1016.67
2019-02-23T06:28:06.765Z,1016.60
2019-02-23T06:29:06.294Z,1016.61
2019-02-23T06:30:06.645Z,1016.60
2019-02-23T06:31:06.658Z,1016.62
2019-02-23T06:32:07.340Z,1016.71
2019-02-23T06:33:06.868Z,1016.69
2019-02-23T06:34:15.580Z,1016.73
2019-02-23T06:35:07.363Z,1016.72
2019-02-23T06:36:07.914Z,1016.78
2019-02-23T06:37:08.729Z,1016.79
2019-02-23T06:38:08.309Z,1016.76
2019-02-23T06:39:08.403Z,1016.78
2019-02-23T06:40:08.077Z,1016.82
2019-02-23T06:41:08.265Z,1016.74
2019-02-23T06:42:08.680Z,1016.81
2019-02-23T06:43:08.637Z,1016.81
2019-02-23T06:44:09.107Z,1016.86
2019-02-23T06:45:09.166Z,1016.95
2019-02-23T06:46:09.541Z,1016.94
2019-02-23T06:47:10.023Z,1016.95
2019-02-23T06:48:09.434Z,1016.93
2019-02-23T06:49:10.283Z,1016.94
2019-02-23T06:50:09.649Z,1016.92
2019-02-23T06:51:09.869Z,1016.92
2019-02-23T06:52:10.068Z,1016.94
2019-02-23T06:53:13.277Z,1016.88
2019-02-23T06:54:11.853Z,1016.92
2019-02-23T06:55:11.991Z,1016.93
2019-02-23T06:56:11.762Z,1016.95
2019-02-23T06:57:10.995Z,1016.89
2019-02-23T06:58:11.135Z,1016.89
2019-02-23T06:59:11.246Z,1016.88
2019-02-23T07:00:11.855Z,1016.88
2019-02-23T07:01:11.459Z,1016.86
2019-02-23T07:02:11.562Z,1016.94
2019-02-23T07:03:11.656Z,1016.91
2019-02-23T07:04:11.729Z,1016.96
2019-02-23T07:05:23.847Z,1016.89
2019-02-23T07:06:12.039Z,1016.95
2019-02-23T07:07:20.535Z,1016.97
2019-02-23T07:08:12.490Z,1016.96
2019-02-23T07:09:12.551Z,1016.98
2019-02-23T07:10:21.673Z,1016.96
2019-02-23T07:11:12.816Z,1016.96
2019-02-23T07:12:39.463Z,1017.00
2019-02-23T07:13:13.845Z,1017.02
2019-02-23T07:14:13.148Z,1017.02
2019-02-23T07:15:13.278Z,1017.01
2019-02-23T07:16:13.515Z,1017.07
2019-02-23T07:17:13.700Z,1017.11
2019-02-23T07:18:14.863Z,1017.11
2019-02-23T07:19:14.055Z,1017.16
2019-02-23T07:20:14.285Z,1017.32
2019-02-23T07:21:14.371Z,1017.34
2019-02-23T07:22:15.785Z,1017.35
2019-02-23T07:23:14.709Z,1017.41
2019-02-23T07:24:14.803Z,1017.44
2019-02-23T07:25:15.100Z,1017.48
2019-02-23T07:26:14.946Z,1017.49
2019-02-23T07:27:15.216Z,1017.50
2019-02-23T07:28:15.441Z,1017.47
2019-02-23T07:29:15.564Z,1017.37
2019-02-23T07:30:15.643Z,1017.35
2019-02-23T07:31:15.868Z,1017.33
2019-02-23T07:32:15.964Z,1017.38
2019-02-23T07:33:16.039Z,1017.42
2019-02-23T07:34:16.260Z,1017.48
2019-02-23T07:35:17.322Z,1017.47
2019-02-23T07:36:16.551Z,1017.47
2019-02-23T07:37:17.972Z,1017.50
2019-02-23T07:38:17.671Z,1017.52
2019-02-23T07:39:18.469Z,1017.50
2019-02-23T07:40:17.133Z,1017.56
2019-02-23T07:41:17.331Z,1017.70
2019-02-23T07:42:17.562Z,1017.80
2019-02-23T07:43:17.658Z,1017.88
2019-02-23T07:44:17.756Z,1017.91
2019-02-23T07:45:17.832Z,1017.84
2019-02-23T07:46:18.031Z,1017.82
2019-02-23T07:47:18.248Z,1017.93
2019-02-23T07:48:18.451Z,1018.02
2019-02-23T07:49:19.329Z,1018.07
2019-02-23T07:50:18.798Z,1018.13
2019-02-23T07:51:18.989Z,1018.12
2019-02-23T07:52:26.368Z,1018.16
2019-02-23T07:53:19.400Z,1018.21
2019-02-23T07:54:19.613Z,1018.24
2019-02-23T07:55:19.839Z,1018.25
2019-02-23T07:56:19.926Z,1018.33
2019-02-23T07:57:20.060Z,1018.39
2019-02-23T07:58:20.385Z,1018.50
2019-02-23T07:59:20.479Z,1018.57
2019-02-23T08:00:20.681Z,1018.50
2019-02-23T08:01:20.901Z,1018.51
2019-02-23T08:02:21.131Z,1018.52
2019-02-23T08:03:21.227Z,1018.45
2019-02-23T08:04:21.870Z,1018.49
2019-02-23T08:05:21.379Z,1018.48
2019-02-23T08:06:21.539Z,1018.47
2019-02-23T08:07:21.666Z,1018.52
2019-02-23T08:08:21.791Z,1018.40
2019-02-23T08:09:21.893Z,1018.28
2019-02-23T08:10:22.039Z,1018.19
2019-02-23T08:11:22.144Z,1018.16
2019-02-23T08:12:22.299Z,1018.06
2019-02-23T08:13:22.421Z,1017.95
2019-02-23T08:14:22.600Z,1017.85
2019-02-23T08:15:22.765Z,1017.78
2019-02-23T08:16:22.919Z,1017.75
2019-02-23T08:17:23.012Z,1017.75
2019-02-23T08:18:23.209Z,1017.71
2019-02-23T08:19:23.429Z,1017.66
2019-02-23T08:20:23.515Z,1017.63
2019-02-23T08:21:23.750Z,1017.65
2019-02-23T08:22:23.832Z,1017.68
2019-02-23T08:23:24.113Z,1017.72
2019-02-23T08:24:24.180Z,1017.73
2019-02-23T08:25:24.453Z,1017.76
2019-02-23T08:26:24.618Z,1017.75
2019-02-23T08:27:24.722Z,1017.75
2019-02-23T08:28:24.841Z,1017.73
2019-02-23T08:29:25.009Z,1017.80
2019-02-23T08:30:25.173Z,1017.78
2019-02-23T08:31:25.289Z,1017.78
2019-02-23T08:32:25.429Z,1017.78
2019-02-23T08:33:25.567Z,1017.80
2019-02-23T08:34:25.700Z,1017.90
2019-02-23T08:35:25.890Z,1017.90
2019-02-23T08:36:26.276Z,1017.85
2019-02-23T08:37:26.134Z,1017.88
2019-02-23T08:38:26.804Z,1017.89
2019-02-23T08:39:26.417Z,1017.85
2019-02-23T08:40:26.623Z,1017.90
2019-02-23T08:41:27.191Z,1017.89
2019-02-23T08:42:26.838Z,1017.85
2019-02-23T08:43:29.087Z,1017.85
2019-02-23T08:44:27.194Z,1017.76
2019-02-23T08:45:27.711Z,1017.72
2019-02-23T08:46:27.636Z,1017.72
2019-02-23T08:47:27.811Z,1017.69
2019-02-23T08:48:27.979Z,1017.64
2019-02-23T08:49:28.097Z,1017.66
2019-02-23T08:50:28.230Z,1017.63
2019-02-23T08:51:28.378Z,1017.70
2019-02-23T08:52:28.591Z,1017.68
2019-02-23T08:53:28.754Z,1017.69
2019-02-23T08:54:28.888Z,1017.64
2019-02-23T08:55:30.960Z,1017.62
2019-02-23T08:56:31.147Z,1017.61
2019-02-23T08:57:30.158Z,1017.60
2019-02-23T08:58:30.263Z,1017.60
2019-02-23T08:59:30.722Z,1017.57
2019-02-23T09:00:30.685Z,1017.55
2019-02-23T09:01:30.509Z,1017.51
2019-02-23T09:02:30.493Z,1017.53
2019-02-23T09:03:30.541Z,1017.55
2019-02-23T09:04:30.645Z,1017.54
2019-02-23T09:05:30.825Z,1017.48
2019-02-23T09:06:31.037Z,1017.43
2019-02-23T09:07:31.214Z,1017.36
2019-02-23T09:08:31.366Z,1017.28
2019-02-23T09:09:31.537Z,1017.29
2019-02-23T09:10:31.690Z,1017.31
2019-02-23T09:11:31.834Z,1017.40
2019-02-23T09:12:31.963Z,1017.44
2019-02-23T09:13:32.107Z,1017.47
2019-02-23T09:14:32.254Z,1017.41
2019-02-23T09:15:32.435Z,1017.40
2019-02-23T09:16:32.690Z,1017.31
2019-02-23T09:17:32.791Z,1017.29
2019-02-23T09:18:32.862Z,1017.30
2019-02-23T09:19:33.063Z,1017.35
2019-02-23T09:20:33.194Z,1017.36
2019-02-23T09:21:33.349Z,1017.35
2019-02-23T09:22:33.504Z,1017.30
2019-02-23T09:23:33.668Z,1017.29
2019-02-23T09:24:33.780Z,1017.23
2019-02-23T09:25:34.049Z,1017.20
2019-02-23T09:26:34.283Z,1017.15
2019-02-23T09:27:34.234Z,1017.05
2019-02-23T09:28:34.676Z,1017.03
2019-02-23T09:29:34.510Z,1017.05
2019-02-23T09:30:34.666Z,1017.04
2019-02-23T09:31:34.856Z,1017.00
2019-02-23T09:32:35.081Z,1016.99
2019-02-23T09:33:35.252Z,1016.99
2019-02-23T09:34:35.536Z,1016.96
2019-02-23T09:35:35.728Z,1016.95
2019-02-23T09:36:35.896Z,1016.98
2019-02-23T09:37:36.342Z,1016.98
2019-02-23T09:38:37.115Z,1017.03
2019-02-23T09:39:36.234Z,1017.07
2019-02-23T09:40:36.323Z,1017.05
2019-02-23T09:41:36.766Z,1017.08
2019-02-23T09:42:36.720Z,1017.05
2019-02-23T09:43:36.833Z,1017.06
2019-02-23T09:44:36.885Z,1017.04
2019-02-23T09:45:37.109Z,1017.00
2019-02-23T09:46:37.225Z,1016.95
2019-02-23T09:47:37.320Z,1016.91
2019-02-23T09:48:37.493Z,1016.92
2019-02-23T09:49:37.698Z,1016.89
2019-02-23T09:50:37.868Z,1016.93
2019-02-23T09:51:38.099Z,1016.98
2019-02-23T09:52:38.262Z,1016.99
2019-02-23T09:53:38.333Z,1016.97
2019-02-23T09:54:38.496Z,1016.99
2019-02-23T09:55:38.674Z,1017.04
2019-02-23T09:56:38.813Z,1017.00
2019-02-23T09:57:38.975Z,1017.06
2019-02-23T09:58:39.136Z,1017.09
2019-02-23T09:59:40.138Z,1017.14
2019-02-23T10:00:39.429Z,1017.13
2019-02-23T10:01:39.489Z,1017.19
2019-02-23T10:02:39.714Z,1017.24
2019-02-23T10:03:39.893Z,1017.26
2019-02-23T10:04:40.158Z,1017.26
2019-02-23T10:05:42.450Z,1017.25
2019-02-23T10:06:42.806Z,1017.26
2019-02-23T10:07:43.264Z,1017.23
2019-02-23T10:08:42.070Z,1017.21
2019-02-23T10:09:42.366Z,1017.17
2019-02-23T10:10:43.056Z,1017.17
2019-02-23T10:11:42.660Z,1017.20
2019-02-23T10:12:42.319Z,1017.17
2019-02-23T10:13:42.866Z,1017.20
2019-02-23T10:14:43.422Z,1017.20
2019-02-23T10:15:43.914Z,1017.19
2019-02-23T10:16:43.699Z,1017.25
2019-02-23T10:17:43.808Z,1017.21
2019-02-23T10:18:44.443Z,1017.20
2019-02-23T10:19:43.346Z,1017.21
2019-02-23T10:20:43.718Z,1017.20
2019-02-23T10:21:43.641Z,1017.23
2019-02-23T10:22:44.321Z,1017.24
2019-02-23T10:23:44.574Z,1017.28
2019-02-23T10:24:44.166Z,1017.26
2019-02-23T10:25:44.297Z,1017.23
2019-02-23T10:26:44.334Z,1017.23
2019-02-23T10:27:44.202Z,1017.21
2019-02-23T10:28:44.339Z,1017.20
2019-02-23T10:29:44.466Z,1017.22
2019-02-23T10:30:44.763Z,1017.28
2019-02-23T10:31:44.880Z,1017.31
2019-02-23T10:32:45.114Z,1017.22
2019-02-23T10:33:47.511Z,1017.23
2019-02-23T10:34:45.472Z,1017.21
2019-02-23T10:35:45.430Z,1017.16
2019-02-23T10:36:45.504Z,1017.12
2019-02-23T10:37:45.768Z,1017.11
2019-02-23T10:38:45.938Z,1017.15
2019-02-23T10:39:46.056Z,1017.16
2019-02-23T10:40:46.223Z,1017.15
2019-02-23T10:41:46.658Z,1017.14
2019-02-23T10:42:46.862Z,1017.15
2019-02-23T10:43:46.707Z,1017.15
2019-02-23T10:44:46.795Z,1017.19
2019-02-23T10:45:46.993Z,1017.15
2019-02-23T10:46:47.550Z,1017.10
2019-02-23T10:47:47.497Z,1017.07
2019-02-23T10:48:47.633Z,1017.05
2019-02-23T10:49:48.264Z,1017.02
2019-02-23T10:50:48.620Z,1017.02
2019-02-23T10:51:47.818Z,1016.95
2019-02-23T10:52:48.434Z,1016.92
2019-02-23T10:53:48.211Z,1016.87
2019-02-23T10:54:48.372Z,1016.87
2019-02-23T10:55:48.625Z,1016.90
2019-02-23T10:56:48.715Z,1016.89
2019-02-23T10:57:48.871Z,1016.87
2019-02-23T10:58:48.986Z,1016.85
2019-02-23T10:59:49.091Z,1016.81
2019-02-23T11:00:49.307Z,1016.77
2019-02-23T11:01:49.422Z,1016.80
2019-02-23T11:02:49.589Z,1016.79
2019-02-23T11:03:49.809Z,1016.81
2019-02-23T11:04:49.964Z,1016.80
2019-02-23T11:05:50.205Z,1016.84
2019-02-23T11:06:50.400Z,1016.86
2019-02-23T11:07:50.597Z,1016.85
2019-02-23T11:08:52.056Z,1016.82
2019-02-23T11:09:51.462Z,1016.82
2019-02-23T11:10:52.767Z,1016.79
2019-02-23T11:11:51.933Z,1016.79
2019-02-23T11:12:52.440Z,1016.80
2019-02-23T11:13:53.548Z,1016.82
2019-02-23T11:14:52.114Z,1016.81
2019-02-23T11:15:52.543Z,1016.81
2019-02-23T11:16:52.081Z,1016.82
2019-02-23T11:17:52.265Z,1016.77
2019-02-23T11:18:52.437Z,1016.75
2019-02-23T11:19:52.619Z,1016.66
2019-02-23T11:20:52.788Z,1016.73
2019-02-23T11:21:52.953Z,1016.71
2019-02-23T11:22:53.145Z,1016.69
2019-02-23T11:23:53.383Z,1016.69
2019-02-23T11:24:53.572Z,1016.75
2019-02-23T11:25:53.724Z,1016.76
2019-02-23T11:26:53.931Z,1016.76
2019-02-23T11:27:54.037Z,1016.73
2019-02-23T11:28:54.180Z,1016.69
2019-02-23T11:29:54.325Z,1016.61
2019-02-23T11:30:54.468Z,1016.60
2019-02-23T11:31:54.632Z,1016.54
2019-02-23T11:32:54.792Z,1016.54
2019-02-23T11:33:54.918Z,1016.52
2019-02-23T11:34:55.061Z,1016.47
2019-02-23T11:35:55.199Z,1016.44
2019-02-23T11:36:55.329Z,1016.43
2019-02-23T11:37:55.489Z,1016.40
2019-02-23T11:38:55.650Z,1016.37
2019-02-23T11:39:55.806Z,1016.40
2019-02-23T11:40:56.002Z,1016.47
2019-02-23T11:41:56.110Z,1016.54
2019-02-23T11:42:56.285Z,1016.51
2019-02-23T11:43:56.421Z,1016.48
2019-02-23T11:44:56.561Z,1016.52
2019-02-23T11:45:56.694Z,1016.49
2019-02-23T11:47:00.464Z,1016.49
2019-02-23T11:47:56.945Z,1016.50
2019-02-23T11:48:57.177Z,1016.45
2019-02-23T11:49:57.267Z,1016.44
2019-02-23T11:50:57.513Z,1016.45
2019-02-23T11:51:57.600Z,1016.45
2019-02-23T11:52:57.893Z,1016.40
2019-02-23T11:53:58.096Z,1016.42
2019-02-23T11:54:58.235Z,1016.40
2019-02-23T11:55:58.344Z,1016.37
2019-02-23T11:56:58.490Z,1016.38
2019-02-23T11:57:58.682Z,1016.35
2019-02-23T11:58:58.910Z,1016.33
2019-02-23T11:59:59.038Z,1016.34
2019-02-23T12:00:59.157Z,1016.31
2019-02-23T12:01:59.214Z,1016.36
2019-02-23T12:02:59.696Z,1016.29
2019-02-23T12:03:59.521Z,1016.34
2019-02-23T12:04:59.709Z,1016.33
2019-02-23T12:05:59.865Z,1016.31
2019-02-23T12:07:00.020Z,1016.35
2019-02-23T12:08:00.162Z,1016.33
2019-02-23T12:09:00.231Z,1016.29
2019-02-23T12:10:00.484Z,1016.26
2019-02-23T12:11:00.575Z,1016.24
2019-02-23T12:12:00.815Z,1016.21
2019-02-23T12:13:00.925Z,1016.23
2019-02-23T12:14:01.040Z,1016.21